createdAt,value
2022-09-06T00:04:33.773Z,7.85
2022-09-06T00:09:38.943Z,10.98
2022-09-06T00:14:42.608Z,11.67
2022-09-06T00:19:46.245Z,9.55
2022-09-06T00:24:51.344Z,10.73
2022-09-06T00:29:54.988Z,10.63
2022-09-06T00:34:58.610Z,8.60
2022-09-06T00:40:04.293Z,7.22
2022-09-06T00:45:11.366Z,19.90
2022-09-06T00:50:18.910Z,11.63
2022-09-06T00:55:25.493Z,8.07
2022-09-06T01:00:29.110Z,8.57
2022-09-06T01:05:40.434Z,9.23
2022-09-06T01:10:59.442Z,9.07
2022-09-06T01:16:12.766Z,9.18
2022-09-06T01:21:37.538Z,10.57
2022-09-06T01:27:07.356Z,11.18
2022-09-06T01:32:19.878Z,10.98
2022-09-06T01:37:24.630Z,10.18
2022-09-06T01:42:32.007Z,10.55
2022-09-06T01:47:46.129Z,8.13
2022-09-06T01:53:01.241Z,12.40
2022-09-06T01:58:30.154Z,14.03
2022-09-06T02:03:43.714Z,10.02
2022-09-06T02:08:51.016Z,13.50
2022-09-06T02:14:00.592Z,7.68
2022-09-06T02:19:10.630Z,9.93
2022-09-06T02:24:19.517Z,9.65
2022-09-06T02:29:24.117Z,6.45
2022-09-06T02:34:29.439Z,8.63
2022-09-06T02:39:33.334Z,12.10
2022-09-06T02:44:37.219Z,6.45
2022-09-06T02:49:42.305Z,12.00
2022-09-06T02:54:46.205Z,8.50
2022-09-06T02:59:50.107Z,9.20
2022-09-06T03:04:55.660Z,8.90
2022-09-06T03:10:00.294Z,13.87
2022-09-06T03:15:05.658Z,9.93
2022-09-06T03:20:14.211Z,8.70
2022-09-06T03:25:19.578Z,10.98
2022-09-06T03:30:25.427Z,9.23
2022-09-06T03:35:34.220Z,11.27
2022-09-06T03:40:41.544Z,11.55
2022-09-06T03:45:49.896Z,11.10
2022-09-06T03:50:58.292Z,12.23
2022-09-06T03:56:02.707Z,13.75
2022-09-06T04:01:08.056Z,16.83
2022-09-06T04:06:13.213Z,12.57
2022-09-06T04:11:17.573Z,15.00
2022-09-06T04:16:21.455Z,9.23
2022-09-06T04:21:26.532Z,14.65
2022-09-06T04:26:31.580Z,12.00
2022-09-06T04:31:38.759Z,17.55
2022-09-06T04:36:48.417Z,14.32
2022-09-06T04:41:55.883Z,10.95
2022-09-06T04:47:09.598Z,10.45
2022-09-06T04:52:18.069Z,11.40
2022-09-06T04:57:25.516Z,15.10
2022-09-06T05:02:31.496Z,12.27
2022-09-06T05:07:39.339Z,10.40
2022-09-06T05:12:46.508Z,15.48
2022-09-06T05:17:53.707Z,16.30
2022-09-06T05:23:02.248Z,13.07
2022-09-06T05:28:09.356Z,18.92
2022-09-06T05:33:21.625Z,16.55
2022-09-06T05:38:30.125Z,16.15
2022-09-06T05:43:37.819Z,13.98
2022-09-06T05:48:44.706Z,21.63
2022-09-06T05:53:53.142Z,16.30
2022-09-06T05:58:59.997Z,19.88
2022-09-06T06:04:08.656Z,18.48
2022-09-06T06:09:17.663Z,17.60
2022-09-06T06:14:24.996Z,12.65
2022-09-06T06:19:32.354Z,16.95
2022-09-06T06:24:41.049Z,11.98
2022-09-06T06:29:48.309Z,14.65
2022-09-06T06:34:55.910Z,14.00
2022-09-06T06:40:06.218Z,11.45
2022-09-06T06:45:13.943Z,14.00
2022-09-06T06:50:21.161Z,21.95
2022-09-06T06:55:29.183Z,15.43
2022-09-06T07:00:36.201Z,16.00
2022-09-06T07:11:16.808Z,16.90
2022-09-06T07:16:26.002Z,15.68
2022-09-06T07:37:22.248Z,18.17
2022-09-06T07:42:35.623Z,21.80
2022-09-06T07:47:59.156Z,12.13
2022-09-06T07:53:11.194Z,10.00
2022-09-06T07:58:23.724Z,8.38
2022-09-06T08:03:30.699Z,13.43
2022-09-06T08:14:08.432Z,12.48
2022-09-06T08:19:16.163Z,7.10
2022-09-06T08:24:23.524Z,9.93
2022-09-06T08:29:32.233Z,4.97
2022-09-06T08:34:39.065Z,17.88
2022-09-06T08:39:45.328Z,9.82
2022-09-06T08:44:58.540Z,5.35
2022-09-06T08:50:09.381Z,6.35
2022-09-06T08:55:32.749Z,9.50
2022-09-06T09:00:43.334Z,6.35
2022-09-06T09:05:54.367Z,9.65
2022-09-06T09:11:04.914Z,6.40
2022-09-06T09:16:13.685Z,7.20
2022-09-06T09:21:29.611Z,6.47
2022-09-06T09:26:43.299Z,9.48
2022-09-06T09:31:54.931Z,16.77
2022-09-06T09:42:41.953Z,6.15
2022-09-06T09:47:51.834Z,10.68
2022-09-06T09:53:08.977Z,8.52
2022-09-06T09:58:30.652Z,16.17
2022-09-06T10:09:19.254Z,7.00
2022-09-06T10:14:31.622Z,3.30
2022-09-06T10:19:46.990Z,5.55
2022-09-06T10:25:29.663Z,5.82
2022-09-06T10:30:43.718Z,10.35
2022-09-06T10:36:02.088Z,3.20
2022-09-06T10:41:30.232Z,7.63
2022-09-06T10:46:43.075Z,4.90
2022-09-06T10:51:57.788Z,5.97
2022-09-06T11:02:46.036Z,3.22
2022-09-06T11:13:29.820Z,7.85
2022-09-06T11:18:43.229Z,8.98
2022-09-06T11:23:54.694Z,6.03
2022-09-06T11:29:03.788Z,5.35
2022-09-06T11:34:14.166Z,3.65
2022-09-06T11:45:22.032Z,5.70
2022-09-06T11:50:48.885Z,3.50
2022-09-06T11:56:12.972Z,13.63
2022-09-06T12:01:37.851Z,5.50
2022-09-06T12:06:43.970Z,8.90
2022-09-06T12:11:49.762Z,5.20
2022-09-06T12:17:29.183Z,10.02
2022-09-06T12:22:55.935Z,5.75
2022-09-06T12:28:06.945Z,2.90
2022-09-06T12:33:21.485Z,6.45
2022-09-06T12:38:29.022Z,3.50
2022-09-06T12:43:40.697Z,4.22
2022-09-06T12:49:09.174Z,5.53
2022-09-06T12:54:23.497Z,4.57
2022-09-06T12:59:33.031Z,3.75
2022-09-06T13:04:43.726Z,3.22
2022-09-06T13:09:56.349Z,4.57
2022-09-06T13:15:12.267Z,5.45
2022-09-06T13:20:27.608Z,3.97
2022-09-06T13:25:35.205Z,4.05
2022-09-06T13:30:49.759Z,7.82
2022-09-06T13:36:23.068Z,3.60
2022-09-06T13:41:58.046Z,8.23
2022-09-06T13:47:07.152Z,8.82
2022-09-06T13:52:14.184Z,4.82
2022-09-06T13:57:24.306Z,3.78
2022-09-06T14:02:33.366Z,3.45
2022-09-06T14:07:40.619Z,9.57
2022-09-06T14:12:47.741Z,5.15
2022-09-06T14:17:56.231Z,7.93
2022-09-06T14:23:03.760Z,7.05
2022-09-06T14:28:11.073Z,7.95
2022-09-06T14:33:17.691Z,5.78
2022-09-06T14:38:21.716Z,3.55
2022-09-06T14:43:33.886Z,6.50
2022-09-06T14:48:42.307Z,5.35
2022-09-06T14:53:47.264Z,6.20
2022-09-06T14:58:51.609Z,6.93
2022-09-06T15:03:58.706Z,14.00
2022-09-06T15:09:03.153Z,3.88
2022-09-06T15:14:18.566Z,7.80
2022-09-06T15:19:34.022Z,4.22
2022-09-06T15:24:38.654Z,6.35
2022-09-06T15:29:42.574Z,6.67
2022-09-06T15:34:47.844Z,8.68
2022-09-06T15:44:55.402Z,9.93
2022-09-06T16:09:03.682Z,9.52
2022-09-06T16:14:10.811Z,8.52
2022-09-06T16:19:14.766Z,7.00
2022-09-06T16:24:20.305Z,7.05
2022-09-06T16:34:28.540Z,9.40
2022-09-06T16:39:33.846Z,13.63
2022-09-06T16:44:39.691Z,6.10
2022-09-06T16:49:43.634Z,7.78
2022-09-06T16:54:48.874Z,6.95
2022-09-06T16:59:52.933Z,7.20
2022-09-06T17:04:56.806Z,10.70
2022-09-06T17:10:01.993Z,7.93
2022-09-06T17:15:06.726Z,11.70
2022-09-06T17:20:10.959Z,15.55
2022-09-06T17:25:16.379Z,11.43
2022-09-06T17:35:24.827Z,14.38
2022-09-06T17:40:30.641Z,13.50
2022-09-06T17:50:41.602Z,10.88
2022-09-06T17:55:46.693Z,10.75
2022-09-06T18:00:51.261Z,10.80
2022-09-06T18:05:55.210Z,14.63
2022-09-06T18:11:00.372Z,18.42
2022-09-06T18:16:05.613Z,17.85
2022-09-06T18:21:09.572Z,16.73
2022-09-06T18:26:14.884Z,17.33
2022-09-06T18:31:21.047Z,14.60
2022-09-06T18:36:29.804Z,13.07
2022-09-06T18:41:54.496Z,15.85
2022-09-06T18:46:59.976Z,11.50
2022-09-06T18:52:04.733Z,12.70
2022-09-06T18:57:10.509Z,14.97
2022-09-06T19:02:14.301Z,15.43
2022-09-06T19:07:18.215Z,12.00
2022-09-06T19:12:23.401Z,9.57
2022-09-06T19:17:27.184Z,10.43
2022-09-06T19:22:31.229Z,7.93
2022-09-06T19:27:36.348Z,9.02
2022-09-06T19:32:40.169Z,11.53
2022-09-06T19:37:44.012Z,13.40
2022-09-06T19:42:49.209Z,9.35
2022-09-06T19:47:52.978Z,14.37
2022-09-06T19:52:56.763Z,11.43
2022-09-06T19:58:03.490Z,12.00
2022-09-06T20:03:07.398Z,9.18
2022-09-06T20:08:11.162Z,10.77
2022-09-06T20:13:16.841Z,10.95
2022-09-06T20:18:21.489Z,8.40
2022-09-06T20:23:25.433Z,6.78
2022-09-06T20:28:33.590Z,9.77
2022-09-06T20:33:38.363Z,7.55
2022-09-06T20:38:44.315Z,9.15
2022-09-06T20:43:53.816Z,8.80
2022-09-06T20:48:59.983Z,9.50
2022-09-06T20:54:09.287Z,7.85
2022-09-06T20:59:17.220Z,6.70
2022-09-06T21:04:21.889Z,6.80
2022-09-06T21:09:28.680Z,8.45
2022-09-06T21:14:34.149Z,9.00
2022-09-06T21:19:39.522Z,6.78
2022-09-06T21:24:43.680Z,10.93
2022-09-06T21:29:49.026Z,6.57
2022-09-06T21:34:53.049Z,7.28
2022-09-06T21:39:57.399Z,12.45
2022-09-06T21:45:02.779Z,9.32
2022-09-06T21:50:07.001Z,9.95
2022-09-06T21:55:14.962Z,13.32
2022-09-06T22:00:21.380Z,8.88
2022-09-06T22:05:43.570Z,6.85
2022-09-06T22:10:48.526Z,9.30
2022-09-06T22:15:53.915Z,11.13
2022-09-06T22:21:01.616Z,15.13
2022-09-06T22:26:07.889Z,10.88
2022-09-06T22:31:13.450Z,10.95
2022-09-06T22:36:17.833Z,10.68
2022-09-06T22:41:21.848Z,13.60
2022-09-06T22:46:27.269Z,11.88
2022-09-06T22:51:31.247Z,14.18
2022-09-06T22:56:35.856Z,16.02
2022-09-06T23:01:41.513Z,11.55
2022-09-06T23:06:45.420Z,13.75
2022-09-06T23:11:49.337Z,12.02
2022-09-06T23:16:54.679Z,11.48
2022-09-06T23:21:58.687Z,9.50
2022-09-06T23:27:04.821Z,19.10
2022-09-06T23:32:10.282Z,16.80
2022-09-06T23:37:14.400Z,11.10
2022-09-06T23:42:18.335Z,16.10
2022-09-06T23:47:23.670Z,23.08
2022-09-06T23:52:27.641Z,18.40
2022-09-06T23:57:31.649Z,16.08
